MDT,Max TemperatureF,Mean TemperatureF,Min TemperatureF,Max Dew PointF,MeanDew PointF,Min DewpointF,Max Humidity, Mean Humidity, Min Humidity, Max Sea Level PressureIn, Mean Sea Level PressureIn, Min Sea Level PressureIn, Max VisibilityMiles, Mean VisibilityMiles, Min VisibilityMiles, Max Wind SpeedMPH, Mean Wind SpeedMPH, Max Gust SpeedMPH,PrecipitationIn, CloudCover, Events, WindDirDegrees
2013-3-1,63,49,34,12,7,3,27,19,11,30.28,30.21,30.16,10,10,10,17,6,21,0.00,0,,215
2013-3-2,70,53,35,17,14,12,38,25,11,30.34,30.21,30.08,10,10,10,13,3,17,0.00,0,,204
2013-3-3,81,60,39,16,7,-8,37,20,3,30.15,29.91,29.74,10,10,10,29,13,38,0.00,3,,237
2013-3-4,79,66,53,27,14,-1,20,13,6,29.88,29.75,29.59,10,8,2,37,18,59,0.00,4,,258
2013-3-5,64,53,41,29,23,18,53,37,21,30.29,30.13,29.91,10,10,10,16,9,21,0.00,4,,99
2013-3-6,76,62,48,23,22,22,34,24,14,30.11,29.97,29.84,10,10,10,16,4,21,0.00,6,,110
2013-3-7,78,64,50,24,21,16,35,22,9,29.92,29.83,29.76,10,10,10,23,9,28,0.00,5,,213
2013-3-8,72,63,54,45,35,22,47,31,15,29.87,29.76,29.68,10,9,5,30,12,40,T,6,Rain,220
2013-3-9,60,52,44,34,26,18,65,43,21,29.90,29.80,29.69,10,10,6,40,21,51,0.00,2,,289
2013-3-10,56,45,33,28,23,19,75,51,26,30.09,30.02,29.90,10,10,10,21,4,26,0.00,2,,117
2013-3-11,66,50,34,21,17,13,44,29,13,30.15,30.04,29.94,10,10,10,18,9,24,0.00,0,,200
2013-3-12,72,56,40,23,16,13,33,22,11,30.13,30.03,29.92,10,10,10,21,8,26,0.00,0,,81
2013-3-13,76,59,42,23,16,8,39,23,7,30.25,30.14,30.06,10,10,10,10,4,15,0.00,0,,79
2013-3-14,80,61,41,13,10,7,30,18,6,30.20,30.09,30.03,10,10,10,10,3,12,0.00,0,,18
2013-3-15,85,65,45,14,9,2,27,16,5,30.16,29.94,29.79,10,10,2,15,5,18,0.00,1,,191
2013-3-16,85,73,60,16,10,0,15,10,4,29.94,29.70,29.57,10,10,10,29,11,38,0.00,3,,241
2013-3-17,80,70,59,17,12,6,16,12,8,29.74,29.65,29.57,10,10,5,36,19,48,0.00,1,,270
2013-3-18,77,67,56,23,14,8,20,14,8,29.88,29.81,29.72,10,10,10,32,12,46,0.00,2,,271
2013-3-19,78,64,49,19,15,10,23,16,9,29.98,29.86,29.78,10,10,10,26,11,31,0.00,3,,259
2013-3-20,71,58,44,32,28,19,49,34,19,30.11,29.96,29.79,10,10,10,14,6,18,0.00,6,,105
2013-3-21,80,68,55,30,22,12,33,21,8,29.74,29.62,29.52,10,10,10,31,15,39,0.00,6,,258
2013-3-22,79,68,57,26,21,14,25,18,11,29.78,29.59,29.48,10,10,10,35,17,51,0.00,4,,247
2013-3-23,74,61,47,24,10,-14,25,15,5,29.95,29.69,29.60,10,9,3,38,23,47,0.00,0,,281
2013-3-24,63,48,33,4,-2,-15,25,16,7,30.07,29.93,29.81,10,10,10,20,7,24,0.00,0,,118
2013-3-25,61,49,37,10,5,-2,23,17,10,30.12,30.03,29.89,10,10,10,18,10,23,0.00,0,,70
2013-3-26,72,56,39,14,12,9,30,20,10,30.17,30.04,29.90,10,10,10,18,9,25,0.00,3,,118
2013-3-27,79,64,49,22,18,15,27,19,10,29.97,29.90,29.83,10,10,10,17,5,23,0.00,5,,204
2013-3-28,81,65,49,26,22,18,28,20,12,29.97,29.90,29.85,10,10,10,18,7,23,0.00,4,,205
2013-3-29,83,70,57,21,16,11,23,16,8,29.98,29.90,29.83,10,10,10,22,7,25,0.00,4,,278
2013-3-30,83,67,51,23,16,11,22,15,8,29.97,29.88,29.80,10,10,10,32,7,41,0.00,5,,261
2013-3-31,82,69,56,25,20,16,23,17,10,29.89,29.83,29.79,10,10,10,17,3,28,0.00,3,,216